Time,TemperatureF,DewpointF,PressureIn,WindDirection,WindDirectionDegrees,WindSpeedMPH,WindSpeedGustMPH,Humidity,HourlyPrecipIn,Conditions,Clouds,dailyrainin,SoftwareType,DateUTC
2013-08-12 00:00:00,64.4,60.8,30.03,NW,319,0.0,0.0,88,0.00,,,0.00,Wunderground v.1.15,2013-08-12 04:00:00,
2013-08-12 00:05:00,64.7,61.1,30.03,NW,318,0.0,1.0,88,0.00,,,0.00,Wunderground v.1.15,2013-08-12 04:05:00,
2013-08-12 00:10:00,64.8,61.2,30.03,NW,318,1.0,1.0,88,0.00,,,0.00,Wunderground v.1.15,2013-08-12 04:10:00,
2013-08-12 00:15:00,64.9,61.3,30.03,NW,318,1.0,1.0,88,0.00,,,0.00,Wunderground v.1.15,2013-08-12 04:15:00,
2013-08-12 00:20:00,64.9,60.9,30.03,NW,318,1.0,2.0,87,0.00,,,0.00,Wunderground v.1.15,2013-08-12 04:20:00,
2013-08-12 00:25:00,65.0,61.0,30.03,NW,318,1.0,2.0,87,0.00,,,0.00,Wunderground v.1.15,2013-08-12 04:25:00,
2013-08-12 00:35:00,65.3,61.3,30.03,NW,317,1.0,1.0,87,0.00,,,0.00,Wunderground v.1.15,2013-08-12 04:35:00,
2013-08-12 00:40:00,65.4,61.8,30.03,NW,317,1.0,1.0,88,0.00,,,0.00,Wunderground v.1.15,2013-08-12 04:40:00,
2013-08-12 00:45:00,65.6,61.9,30.03,NW,317,1.0,1.0,88,0.00,,,0.00,Wunderground v.1.15,2013-08-12 04:45:00,
2013-08-12 00:50:00,65.5,61.9,30.03,NW,317,1.0,1.0,88,0.00,,,0.00,Wunderground v.1.15,2013-08-12 04:50:00,
2013-08-12 01:00:00,65.5,61.5,30.03,NW,317,0.0,0.0,87,0.00,,,0.00,Wunderground v.1.15,2013-08-12 05:00:00,
2013-08-12 01:10:00,65.5,61.5,30.03,NW,317,0.0,0.0,87,0.00,,,0.00,Wunderground v.1.15,2013-08-12 05:10:00,
2013-08-12 01:20:00,65.5,61.2,30.03,NW,317,0.0,0.0,86,0.00,,,0.00,Wunderground v.1.15,2013-08-12 05:20:00,
2013-08-12 01:30:00,65.6,61.3,30.02,NW,317,0.0,0.0,86,0.00,,,0.00,Wunderground v.1.15,2013-08-12 05:30:00,
2013-08-12 01:40:00,65.9,61.3,30.02,NW,317,0.0,0.0,85,0.00,,,0.00,Wunderground v.1.15,2013-08-12 05:40:00,
2013-08-12 01:50:00,66.2,61.6,30.02,NW,317,0.0,0.0,85,0.00,,,0.00,Wunderground v.1.15,2013-08-12 05:50:00,
2013-08-12 02:00:00,66.3,62.3,30.02,NW,317,0.0,0.0,87,0.00,,,0.00,Wunderground v.1.15,2013-08-12 06:00:00,
2013-08-12 02:10:00,66.1,62.1,30.02,NW,317,0.0,0.0,87,0.00,,,0.00,Wunderground v.1.15,2013-08-12 06:10:00,
2013-08-12 02:15:00,66.0,62.0,30.01,NW,317,0.0,0.0,87,0.00,,,0.00,Wunderground v.1.15,2013-08-12 06:15:00,
2013-08-12 02:25:00,66.1,62.1,30.01,NW,316,0.0,0.0,87,0.00,,,0.00,Wunderground v.1.15,2013-08-12 06:25:00,
2013-08-12 02:30:00,66.2,62.2,30.01,West,260,0.0,0.0,87,0.00,,,0.00,Wunderground v.1.15,2013-08-12 06:30:00,
2013-08-12 02:40:00,66.0,62.0,30.02,West,260,0.0,0.0,87,0.00,,,0.00,Wunderground v.1.15,2013-08-12 06:40:00,
2013-08-12 02:50:00,66.0,62.0,30.01,West,260,0.0,0.0,87,0.00,,,0.00,Wunderground v.1.15,2013-08-12 06:50:00,
2013-08-12 03:00:00,66.0,61.7,30.01,West,260,0.0,0.0,86,0.00,,,0.00,Wunderground v.1.15,2013-08-12 07:00:00,
2013-08-12 03:10:00,66.1,61.8,30.01,West,260,0.0,0.0,86,0.00,,,0.00,Wunderground v.1.15,2013-08-12 07:10:00,
2013-08-12 03:15:00,66.1,61.8,30.01,West,260,0.0,0.0,86,0.00,,,0.00,Wunderground v.1.15,2013-08-12 07:15:00,
2013-08-12 03:25:00,66.1,61.5,30.00,West,260,0.0,0.0,85,0.00,,,0.00,Wunderground v.1.15,2013-08-12 07:25:00,
2013-08-12 03:30:00,66.0,61.4,30.00,West,260,0.0,0.0,85,0.00,,,0.00,Wunderground v.1.15,2013-08-12 07:30:00,
2013-08-12 03:40:00,66.0,61.7,30.00,West,260,0.0,0.0,86,0.00,,,0.00,Wunderground v.1.15,2013-08-12 07:40:00,
2013-08-12 03:45:00,65.7,61.7,30.00,West,260,0.0,0.0,87,0.00,,,0.00,Wunderground v.1.15,2013-08-12 07:45:00,
2013-08-12 03:55:00,65.5,61.5,30.00,West,260,0.0,0.0,87,0.00,,,0.00,Wunderground v.1.15,2013-08-12 07:55:00,
2013-08-12 04:00:00,65.5,61.5,29.99,West,260,0.0,0.0,87,0.00,,,0.00,Wunderground v.1.15,2013-08-12 08:00:00,
2013-08-12 04:10:00,65.4,61.1,30.00,West,259,0.0,0.0,86,0.00,,,0.00,Wunderground v.1.15,2013-08-12 08:10:00,
2013-08-12 04:15:00,65.3,61.0,30.00,West,259,0.0,0.0,86,0.00,,,0.00,Wunderground v.1.15,2013-08-12 08:15:00,
2013-08-12 04:20:00,65.3,61.3,29.99,West,259,0.0,0.0,87,0.00,,,0.00,Wunderground v.1.15,2013-08-12 08:20:00,
2013-08-12 04:30:00,65.1,61.1,29.99,West,259,0.0,0.0,87,0.00,,,0.00,Wunderground v.1.15,2013-08-12 08:30:00,
2013-08-12 04:35:00,65.1,61.1,29.99,West,259,0.0,0.0,87,0.00,,,0.00,Wunderground v.1.15,2013-08-12 08:35:00,
2013-08-12 04:45:00,64.8,60.8,30.00,West,262,0.0,0.0,87,0.00,,,0.00,Wunderground v.1.15,2013-08-12 08:45:00,
2013-08-12 04:50:00,64.7,61.1,30.00,West,262,0.0,0.0,88,0.00,,,0.00,Wunderground v.1.15,2013-08-12 08:50:00,
2013-08-12 05:00:00,64.5,61.2,30.00,West,262,0.0,0.0,89,0.00,,,0.00,Wunderground v.1.15,2013-08-12 09:00:00,
2013-08-12 05:10:00,64.8,61.5,29.99,West,261,0.0,0.0,89,0.00,,,0.00,Wunderground v.1.15,2013-08-12 09:10:00,
2013-08-12 05:15:00,64.8,61.5,29.99,West,261,0.0,0.0,89,0.00,,,0.00,Wunderground v.1.15,2013-08-12 09:15:00,
2013-08-12 05:25:00,64.9,61.6,29.99,West,261,0.0,0.0,89,0.00,,,0.00,Wunderground v.1.15,2013-08-12 09:25:00,
2013-08-12 05:30:00,64.9,61.6,29.99,West,261,0.0,0.0,89,0.00,,,0.00,Wunderground v.1.15,2013-08-12 09:30:00,
2013-08-12 05:40:00,65.1,61.8,29.99,West,261,0.0,0.0,89,0.00,,,0.00,Wunderground v.1.15,2013-08-12 09:40:00,
2013-08-12 05:45:00,65.3,62.0,29.99,West,261,0.0,0.0,89,0.00,,,0.00,Wunderground v.1.15,2013-08-12 09:45:00,
2013-08-12 05:55:00,65.6,61.9,29.99,South,190,0.0,0.0,88,0.00,,,0.00,Wunderground v.1.15,2013-08-12 09:55:00,
2013-08-12 06:00:00,65.7,62.0,29.99,South,190,0.0,2.0,88,0.00,,,0.00,Wunderground v.1.15,2013-08-12 10:00:00,
2013-08-12 06:10:00,65.8,61.8,29.98,South,190,2.0,2.0,87,0.00,,,0.00,Wunderground v.1.15,2013-08-12 10:10:00,
2013-08-12 06:20:00,65.8,61.8,29.98,South,190,1.0,1.0,87,0.00,,,0.00,Wunderground v.1.15,2013-08-12 10:20:00,
2013-08-12 06:25:00,65.9,61.9,29.98,South,190,1.0,1.0,87,0.00,,,0.00,Wunderground v.1.15,2013-08-12 10:25:00,
2013-08-12 06:35:00,65.9,61.6,29.98,South,190,1.0,1.0,86,0.00,,,0.00,Wunderground v.1.15,2013-08-12 10:35:00,
2013-08-12 06:45:00,65.9,61.9,29.99,South,190,0.0,1.0,87,0.00,,,0.00,Wunderground v.1.15,2013-08-12 10:45:00,
2013-08-12 06:55:00,65.8,62.1,29.99,SSW,192,1.0,2.0,88,0.00,,,0.00,Wunderground v.1.15,2013-08-12 10:55:00,
2013-08-12 07:00:00,65.7,62.0,30.00,WSW,249,2.0,2.0,88,0.00,,,0.01,Wunderground v.1.15,2013-08-12 11:00:00,
2013-08-12 07:10:00,65.5,61.9,30.00,West,267,1.0,1.0,88,0.12,,,0.03,Wunderground v.1.15,2013-08-12 11:10:00,
2013-08-12 07:20:00,65.3,62.0,29.99,West,279,1.0,1.0,89,0.06,,,0.04,Wunderground v.1.15,2013-08-12 11:20:00,
2013-08-12 07:25:00,65.2,61.9,29.99,West,279,0.0,1.0,89,0.04,,,0.04,Wunderground v.1.15,2013-08-12 11:25:00,
2013-08-12 07:30:00,65.2,61.9,29.99,West,279,0.0,0.0,89,0.00,,,0.04,Wunderground v.1.15,2013-08-12 11:30:00,
2013-08-12 07:40:00,65.2,61.9,29.99,NNW,338,1.0,1.0,89,0.00,,,0.04,Wunderground v.1.15,2013-08-12 11:40:00,
2013-08-12 07:45:00,65.2,62.2,29.99,NNW,338,1.0,1.0,90,0.00,,,0.04,Wunderground v.1.15,2013-08-12 11:45:00,
2013-08-12 07:55:00,65.5,62.5,29.99,NNW,338,0.0,0.0,90,0.00,,,0.04,Wunderground v.1.15,2013-08-12 11:55:00,
2013-08-12 08:00:00,65.6,62.6,29.98,NNW,338,0.0,0.0,90,0.00,,,0.04,Wunderground v.1.15,2013-08-12 12:00:00,
2013-08-12 08:10:00,65.8,63.1,29.98,NNW,337,0.0,1.0,91,0.00,,,0.04,Wunderground v.1.15,2013-08-12 12:10:00,
2013-08-12 08:15:00,65.8,62.8,29.98,NNW,337,0.0,1.0,90,0.00,,,0.04,Wunderground v.1.15,2013-08-12 12:15:00,
2013-08-12 08:20:00,65.8,62.8,29.98,NNW,338,0.0,0.0,90,0.00,,,0.04,Wunderground v.1.15,2013-08-12 12:20:00,
2013-08-12 08:30:00,66.0,63.0,29.98,NNW,337,0.0,0.0,90,0.00,,,0.04,Wunderground v.1.15,2013-08-12 12:30:00,
2013-08-12 08:35:00,66.2,63.2,29.98,NNW,337,0.0,1.0,90,0.00,,,0.04,Wunderground v.1.15,2013-08-12 12:35:00,
2013-08-12 08:40:00,66.5,63.5,29.98,NNW,337,1.0,2.0,90,0.00,,,0.04,Wunderground v.1.15,2013-08-12 12:40:00,
2013-08-12 08:50:00,66.8,63.8,29.99,NW,309,1.0,2.0,90,0.00,,,0.04,Wunderground v.1.15,2013-08-12 12:50:00,
2013-08-12 08:55:00,66.8,63.8,29.99,NW,311,2.0,2.0,90,0.00,,,0.04,Wunderground v.1.15,2013-08-12 12:55:00,
2013-08-12 09:00:00,66.8,63.8,30.00,NNW,330,3.0,4.0,90,0.00,,,0.04,Wunderground v.1.15,2013-08-12 13:00:00,
2013-08-12 09:10:00,66.2,62.9,30.01,NNW,348,7.0,7.0,89,0.00,,,0.04,Wunderground v.1.15,2013-08-12 13:10:00,
2013-08-12 09:15:00,65.9,62.6,30.00,NNW,332,6.0,7.0,89,0.00,,,0.04,Wunderground v.1.15,2013-08-12 13:15:00,
2013-08-12 09:25:00,65.9,62.6,30.00,North,5,3.0,4.0,89,0.00,,,0.04,Wunderground v.1.15,2013-08-12 13:25:00,
2013-08-12 09:30:00,65.9,62.9,30.00,North,5,2.0,3.0,90,0.00,,,0.04,Wunderground v.1.15,2013-08-12 13:30:00,
2013-08-12 09:40:00,65.9,62.6,29.99,North,360,3.0,3.0,89,0.11,,,0.06,Wunderground v.1.15,2013-08-12 13:40:00,
2013-08-12 09:45:00,65.9,62.9,29.99,North,5,4.0,4.0,90,0.09,,,0.06,Wunderground v.1.15,2013-08-12 13:45:00,
2013-08-12 09:50:00,65.9,62.9,30.00,North,360,3.0,4.0,90,0.05,,,0.06,Wunderground v.1.15,2013-08-12 13:50:00,
2013-08-12 10:00:00,65.8,62.8,30.00,NNW,338,3.0,4.0,90,0.00,,,0.06,Wunderground v.1.15,2013-08-12 14:00:00,
2013-08-12 10:10:00,65.6,62.6,30.01,WNW,295,4.0,4.0,90,0.00,,,0.07,Wunderground v.1.15,2013-08-12 14:10:00,
2013-08-12 10:20:00,65.6,62.6,30.00,NW,311,5.0,5.0,90,0.14,,,0.11,Wunderground v.1.15,2013-08-12 14:20:00,
2013-08-12 10:25:00,65.5,62.8,30.00,WNW,285,4.0,5.0,91,0.09,,,0.12,Wunderground v.1.15,2013-08-12 14:25:00,
2013-08-12 10:35:00,65.4,62.7,29.99,SSW,209,3.0,4.0,91,0.20,,,0.16,Wunderground v.1.15,2013-08-12 14:35:00,
2013-08-12 10:40:00,65.3,62.6,29.99,SW,217,2.0,3.0,91,0.09,,,0.16,Wunderground v.1.15,2013-08-12 14:40:00,
2013-08-12 10:45:00,65.3,62.6,29.99,SSW,204,2.0,3.0,91,0.05,,,0.16,Wunderground v.1.15,2013-08-12 14:45:00,
2013-08-12 10:55:00,65.5,62.8,29.99,SSW,204,0.0,1.0,91,0.00,,,0.16,Wunderground v.1.15,2013-08-12 14:55:00,
2013-08-12 11:00:00,65.7,63.3,29.99,SSW,204,1.0,1.0,92,0.00,,,0.16,Wunderground v.1.15,2013-08-12 15:00:00,
2013-08-12 11:10:00,65.9,63.5,29.99,SSW,205,1.0,1.0,92,0.00,,,0.16,Wunderground v.1.15,2013-08-12 15:10:00,
2013-08-12 11:15:00,65.8,63.4,29.99,SSW,205,0.0,1.0,92,0.00,,,0.16,Wunderground v.1.15,2013-08-12 15:15:00,
2013-08-12 11:25:00,65.9,63.5,29.99,North,355,1.0,2.0,92,0.00,,,0.16,Wunderground v.1.15,2013-08-12 15:25:00,
2013-08-12 11:35:00,65.9,63.5,29.99,NE,39,2.0,2.0,92,0.00,,,0.16,Wunderground v.1.15,2013-08-12 15:35:00,
2013-08-12 11:45:00,66.1,63.7,29.98,South,170,2.0,3.0,92,0.00,,,0.16,Wunderground v.1.15,2013-08-12 15:45:00,
2013-08-12 11:50:00,66.2,63.8,29.98,SSE,166,3.0,3.0,92,0.00,,,0.16,Wunderground v.1.15,2013-08-12 15:50:00,
2013-08-12 12:00:00,66.3,63.9,29.98,SSE,166,1.0,2.0,92,0.00,,,0.16,Wunderground v.1.15,2013-08-12 16:00:00,
2013-08-12 12:10:00,66.7,64.3,29.98,SSE,160,2.0,2.0,92,0.00,,,0.17,Wunderground v.1.15,2013-08-12 16:10:00,
2013-08-12 12:20:00,66.6,63.9,29.99,SSE,160,0.0,0.0,91,0.00,,,0.17,Wunderground v.1.15,2013-08-12 16:20:00,
2013-08-12 12:30:00,66.8,64.4,29.98,SSE,165,1.0,1.0,92,0.00,,,0.17,Wunderground v.1.15,2013-08-12 16:30:00,
2013-08-12 12:40:00,66.8,64.1,29.99,NNE,24,0.0,0.0,91,0.00,,,0.17,Wunderground v.1.15,2013-08-12 16:40:00,
2013-08-12 12:50:00,67.0,64.3,29.98,NNE,21,0.0,0.0,91,0.00,,,0.17,Wunderground v.1.15,2013-08-12 16:50:00,
2013-08-12 13:00:00,67.1,63.7,29.97,ESE,118,1.0,1.0,89,0.00,,,0.17,Wunderground v.1.15,2013-08-12 17:00:00,
2013-08-12 13:10:00,67.6,64.2,29.97,SSE,168,2.0,3.0,89,0.00,,,0.17,Wunderground v.1.15,2013-08-12 17:10:00,
2013-08-12 13:20:00,68.0,63.7,29.96,South,186,3.0,3.0,86,0.00,,,0.17,Wunderground v.1.15,2013-08-12 17:20:00,
2013-08-12 13:29:00,68.2,63.9,29.96,South,182,1.0,2.0,86,0.00,,,0.17,Wunderground v.1.15,2013-08-12 17:29:00,
2013-08-12 13:39:00,68.5,63.8,29.96,SSE,150,2.0,3.0,85,0.00,,,0.17,Wunderground v.1.15,2013-08-12 17:39:00,
2013-08-12 13:44:00,68.5,63.8,29.96,SE,138,2.0,3.0,85,0.00,,,0.17,Wunderground v.1.15,2013-08-12 17:44:00,
2013-08-12 13:54:00,68.9,64.2,29.96,SE,129,1.0,2.0,85,0.00,,,0.17,Wunderground v.1.15,2013-08-12 17:54:00,
2013-08-12 13:59:00,69.1,64.4,29.96,SE,138,2.0,2.0,85,0.00,,,0.17,Wunderground v.1.15,2013-08-12 17:59:00,
2013-08-12 14:09:00,69.3,64.3,29.95,SSE,148,2.0,2.0,84,0.00,,,0.17,Wunderground v.1.15,2013-08-12 18:09:00,
2013-08-12 14:14:00,69.4,64.4,29.95,SE,129,2.0,2.0,84,0.00,,,0.17,Wunderground v.1.15,2013-08-12 18:14:00,
2013-08-12 14:24:00,69.8,64.7,29.95,SE,126,0.0,1.0,84,0.00,,,0.17,Wunderground v.1.15,2013-08-12 18:24:00,
2013-08-12 14:29:00,70.0,65.3,29.94,SE,126,1.0,1.0,85,0.00,,,0.17,Wunderground v.1.15,2013-08-12 18:29:00,
2013-08-12 14:39:00,70.6,65.5,29.94,SE,126,0.0,2.0,84,0.00,,,0.17,Wunderground v.1.15,2013-08-12 18:39:00,
2013-08-12 14:44:00,70.9,65.8,29.93,SE,130,1.0,2.0,84,0.00,,,0.17,Wunderground v.1.15,2013-08-12 18:44:00,
2013-08-12 14:54:00,71.5,66.4,29.93,SSE,149,2.0,3.0,84,0.00,,,0.17,Wunderground v.1.15,2013-08-12 18:54:00,
2013-08-12 14:59:00,71.7,66.3,29.93,SE,137,2.0,2.0,83,0.00,,,0.17,Wunderground v.1.15,2013-08-12 18:59:00,
2013-08-12 15:09:00,72.8,66.6,29.93,SSE,155,2.0,2.0,81,0.00,,,0.17,Wunderground v.1.15,2013-08-12 19:09:00,
2013-08-12 15:19:00,74.0,67.8,29.93,East,82,2.0,2.0,81,0.00,,,0.17,Wunderground v.1.15,2013-08-12 19:19:00,
2013-08-12 15:24:00,74.8,68.9,29.92,East,92,2.0,2.0,82,0.00,,,0.17,Wunderground v.1.15,2013-08-12 19:24:00,
2013-08-12 15:29:00,75.3,68.3,29.92,SE,145,2.0,2.0,79,0.00,,,0.17,Wunderground v.1.15,2013-08-12 19:29:00,
2013-08-12 15:39:00,75.0,67.7,29.91,East,86,3.0,3.0,78,0.00,,,0.17,Wunderground v.1.15,2013-08-12 19:39:00,
2013-08-12 15:44:00,74.5,66.4,29.92,East,84,4.0,4.0,76,0.00,,,0.17,Wunderground v.1.15,2013-08-12 19:44:00,
2013-08-12 15:54:00,74.6,66.5,29.91,ESE,103,4.0,4.0,76,0.00,,,0.17,Wunderground v.1.15,2013-08-12 19:54:00,
2013-08-12 15:59:00,74.4,66.7,29.91,East,79,4.0,4.0,77,0.00,,,0.17,Wunderground v.1.15,2013-08-12 19:59:00,
2013-08-12 16:09:00,73.9,66.6,29.91,East,82,4.0,4.0,78,0.00,,,0.17,Wunderground v.1.15,2013-08-12 20:09:00,
2013-08-12 16:19:00,73.6,66.3,29.90,East,95,4.0,5.0,78,0.00,,,0.17,Wunderground v.1.15,2013-08-12 20:19:00,
2013-08-12 16:29:00,73.5,66.9,29.90,ESE,103,5.0,5.0,80,0.00,,,0.17,Wunderground v.1.15,2013-08-12 20:29:00,
2013-08-12 16:34:00,73.5,66.2,29.90,ENE,68,5.0,5.0,78,0.00,,,0.17,Wunderground v.1.15,2013-08-12 20:34:00,
2013-08-12 16:44:00,73.7,66.4,29.89,East,90,6.0,8.0,78,0.00,,,0.17,Wunderground v.1.15,2013-08-12 20:44:00,
2013-08-12 16:54:00,73.1,66.2,29.89,East,89,5.0,6.0,79,0.00,,,0.17,Wunderground v.1.15,2013-08-12 20:54:00,
2013-08-12 16:59:00,73.1,66.6,29.88,East,93,4.0,6.0,80,0.00,,,0.17,Wunderground v.1.15,2013-08-12 20:59:00,
2013-08-12 17:09:00,73.7,67.5,29.88,ENE,72,4.0,4.0,81,0.00,,,0.17,Wunderground v.1.15,2013-08-12 21:09:00,
2013-08-12 17:14:00,73.8,67.6,29.88,ENE,76,4.0,5.0,81,0.00,,,0.17,Wunderground v.1.15,2013-08-12 21:14:00,
2013-08-12 17:24:00,73.2,67.0,29.87,East,93,5.0,7.0,81,0.00,,,0.17,Wunderground v.1.15,2013-08-12 21:24:00,
2013-08-12 17:29:00,73.0,66.8,29.87,East,86,6.0,6.0,81,0.00,,,0.17,Wunderground v.1.15,2013-08-12 21:29:00,
2013-08-12 17:39:00,73.0,66.5,29.87,ENE,73,6.0,6.0,80,0.00,,,0.17,Wunderground v.1.15,2013-08-12 21:39:00,
2013-08-12 17:44:00,73.1,66.9,29.87,East,82,5.0,7.0,81,0.00,,,0.17,Wunderground v.1.15,2013-08-12 21:44:00,
2013-08-12 17:54:00,73.3,66.8,29.86,ENE,78,4.0,4.0,80,0.00,,,0.17,Wunderground v.1.15,2013-08-12 21:54:00,
2013-08-12 17:59:00,73.2,66.7,29.86,East,98,4.0,4.0,80,0.00,,,0.17,Wunderground v.1.15,2013-08-12 21:59:00,
2013-08-12 18:09:00,73.0,66.8,29.86,ESE,111,3.0,3.0,81,0.00,,,0.17,Wunderground v.1.15,2013-08-12 22:09:00,
2013-08-12 18:14:00,72.9,66.7,29.85,SE,131,3.0,3.0,81,0.00,,,0.17,Wunderground v.1.15,2013-08-12 22:14:00,
2013-08-12 18:19:00,72.9,66.7,29.85,SE,137,3.0,3.0,81,0.00,,,0.17,Wunderground v.1.15,2013-08-12 22:19:00,
2013-08-12 18:29:00,72.8,66.6,29.84,SSE,155,3.0,4.0,81,0.00,,,0.17,Wunderground v.1.15,2013-08-12 22:29:00,
2013-08-12 18:34:00,72.8,66.6,29.83,East,94,3.0,4.0,81,0.00,,,0.17,Wunderground v.1.15,2013-08-12 22:34:00,
2013-08-12 18:44:00,73.1,67.3,29.83,East,82,2.0,3.0,82,0.00,,,0.17,Wunderground v.1.15,2013-08-12 22:44:00,
2013-08-12 18:49:00,73.1,66.9,29.83,SE,126,2.0,2.0,81,0.00,,,0.17,Wunderground v.1.15,2013-08-12 22:49:00,
2013-08-12 18:59:00,73.3,67.5,29.83,ESE,117,1.0,1.0,82,0.00,,,0.17,Wunderground v.1.15,2013-08-12 22:59:00,
2013-08-12 19:09:00,73.2,67.4,29.82,East,92,2.0,2.0,82,0.00,,,0.17,Wunderground v.1.15,2013-08-12 23:09:00,
2013-08-12 19:19:00,73.0,67.5,29.82,ESE,113,1.0,1.0,83,0.00,,,0.17,Wunderground v.1.15,2013-08-12 23:19:00,
2013-08-12 19:29:00,72.9,67.8,29.82,East,92,1.0,2.0,84,0.00,,,0.17,Wunderground v.1.15,2013-08-12 23:29:00,
2013-08-12 19:34:00,72.9,67.8,29.82,East,94,1.0,2.0,84,0.00,,,0.17,Wunderground v.1.15,2013-08-12 23:34:00,
2013-08-12 19:44:00,72.8,68.0,29.82,East,90,1.0,1.0,85,0.00,,,0.17,Wunderground v.1.15,2013-08-12 23:44:00,
2013-08-12 19:49:00,72.6,67.8,29.82,East,80,2.0,2.0,85,0.00,,,0.17,Wunderground v.1.15,2013-08-12 23:49:00,
2013-08-12 19:54:00,72.4,67.6,29.82,East,84,2.0,2.0,85,0.00,,,0.17,Wunderground v.1.15,2013-08-12 23:54:00,
2013-08-12 19:59:00,72.2,67.4,29.81,East,91,3.0,3.0,85,0.00,,,0.17,Wunderground v.1.15,2013-08-12 23:59:00,
2013-08-12 20:09:00,72.1,67.3,29.81,SE,128,1.0,1.0,85,0.00,,,0.17,Wunderground v.1.15,2013-08-13 00:09:00,
2013-08-12 20:14:00,72.1,67.3,29.81,SE,126,1.0,1.0,85,0.00,,,0.17,Wunderground v.1.15,2013-08-13 00:14:00,
2013-08-12 20:24:00,72.1,67.7,29.81,SE,140,1.0,2.0,86,0.00,,,0.17,Wunderground v.1.15,2013-08-13 00:24:00,
2013-08-12 20:34:00,71.7,67.3,29.82,West,265,2.0,3.0,86,0.00,,,0.17,Wunderground v.1.15,2013-08-13 00:34:00,
2013-08-12 20:44:00,70.9,66.8,29.82,NNW,335,3.0,4.0,87,0.00,,,0.17,Wunderground v.1.15,2013-08-13 00:44:00,
2013-08-12 20:49:00,70.6,66.9,29.81,NNW,346,4.0,4.0,88,0.00,,,0.17,Wunderground v.1.15,2013-08-13 00:49:00,
2013-08-12 20:59:00,70.4,67.0,29.81,ESE,103,2.0,2.0,89,0.00,,,0.17,Wunderground v.1.15,2013-08-13 00:59:00,
2013-08-12 21:09:00,70.3,66.9,29.81,South,189,2.0,2.0,89,0.00,,,0.17,Wunderground v.1.15,2013-08-13 01:09:00,
2013-08-12 21:14:00,70.3,66.9,29.80,South,189,1.0,2.0,89,0.00,,,0.17,Wunderground v.1.15,2013-08-13 01:14:00,
2013-08-12 21:24:00,70.4,67.0,29.80,South,189,1.0,1.0,89,0.00,,,0.17,Wunderground v.1.15,2013-08-13 01:24:00,
2013-08-12 21:34:00,70.3,66.9,29.81,South,188,1.0,1.0,89,0.00,,,0.17,Wunderground v.1.15,2013-08-13 01:34:00,
2013-08-12 21:39:00,70.1,66.7,29.81,NNW,330,2.0,5.0,89,0.00,,,0.17,Wunderground v.1.15,2013-08-13 01:39:00,
2013-08-12 21:49:00,69.9,66.8,29.82,North,5,3.0,3.0,90,0.00,,,0.17,Wunderground v.1.15,2013-08-13 01:49:00,
2013-08-12 21:54:00,69.8,66.7,29.82,North,360,2.0,3.0,90,0.00,,,0.17,Wunderground v.1.15,2013-08-13 01:54:00,
2013-08-12 21:59:00,69.8,66.7,29.82,NNW,331,2.0,5.0,90,0.00,,,0.17,Wunderground v.1.15,2013-08-13 01:59:00,
2013-08-12 22:09:00,69.4,66.0,29.83,NNW,340,7.0,9.0,89,0.00,,,0.17,Wunderground v.1.15,2013-08-13 02:09:00,
2013-08-12 22:19:00,69.7,65.7,29.82,NNE,19,6.0,6.0,87,0.00,,,0.17,Wunderground v.1.15,2013-08-13 02:19:00,
2013-08-12 22:29:00,69.9,65.2,29.82,NNE,17,6.0,6.0,85,0.00,,,0.17,Wunderground v.1.15,2013-08-13 02:29:00,
2013-08-12 22:34:00,69.8,65.1,29.82,NNE,22,4.0,6.0,85,0.00,,,0.17,Wunderground v.1.15,2013-08-13 02:34:00,
2013-08-12 22:44:00,69.6,65.2,29.82,NNE,22,0.0,2.0,86,0.00,,,0.17,Wunderground v.1.15,2013-08-13 02:44:00,
2013-08-12 22:49:00,69.6,65.2,29.82,NNE,22,0.0,0.0,86,0.00,,,0.17,Wunderground v.1.15,2013-08-13 02:49:00,
2013-08-12 22:59:00,69.1,64.7,29.82,ENE,57,2.0,2.0,86,0.00,,,0.17,Wunderground v.1.15,2013-08-13 02:59:00,
2013-08-12 23:09:00,68.7,64.7,29.82,ENE,64,3.0,3.0,87,0.00,,,0.17,Wunderground v.1.15,2013-08-13 03:09:00,
2013-08-12 23:14:00,68.5,64.5,29.81,ENE,64,2.0,3.0,87,0.00,,,0.17,Wunderground v.1.15,2013-08-13 03:14:00,
2013-08-12 23:24:00,68.3,64.6,29.81,ENE,64,1.0,1.0,88,0.00,,,0.17,Wunderground v.1.15,2013-08-13 03:24:00,
2013-08-12 23:29:00,68.1,64.4,29.81,NNE,24,2.0,5.0,88,0.00,,,0.17,Wunderground v.1.15,2013-08-13 03:29:00,
2013-08-12 23:39:00,67.9,64.2,29.81,SW,229,3.0,3.0,88,0.00,,,0.17,Wunderground v.1.15,2013-08-13 03:39:00,
2013-08-12 23:54:00,67.8,64.4,29.83,NNW,338,4.0,11.0,89,0.00,,,0.17,Wunderground v.1.15,2013-08-13 03:54:00,